Time;durP1;ratioP1;P1;durP2;ratioP2;P2;SDS_P1;SDS_P2;PMS_P1;PMS_P2;Temp;Humidity;BMP_temperature;BMP_pressure;BME280_temperature;BME280_humidity;BME280_pressure;Samples;Min_cycle;Max_cycle;Signal;HPM_P1;HPM_P2
2021/09/27 00:00:38;;;;;;;20.13;18.23;;;16.00;99.90;;;;;;5119949;28;20434;-45
2021/09/27 00:03:05;;;;;;;21.80;19.50;;;16.00;99.90;;;;;;5102339;28;20415;-45
2021/09/27 00:05:32;;;;;;;20.80;18.67;;;15.90;99.90;;;;;;5119542;28;20484;-45
2021/09/27 00:07:58;;;;;;;22.90;20.07;;;15.90;99.90;;;;;;5119613;28;21005;-45
2021/09/27 00:10:27;;;;;;;23.73;21.40;;;15.80;99.90;;;;;;5119593;28;20437;-45
2021/09/27 00:12:54;;;;;;;20.90;18.80;;;15.80;99.90;;;;;;5119637;28;20245;-45
2021/09/27 00:15:25;;;;;;;24.53;20.87;;;15.70;99.90;;;;;;5101937;28;20421;-45
2021/09/27 00:17:51;;;;;;;20.67;18.67;;;15.70;99.90;;;;;;5119315;28;20740;-46
2021/09/27 00:20:18;;;;;;;21.33;19.17;;;15.70;99.90;;;;;;5119290;28;20457;-45
2021/09/27 00:22:44;;;;;;;22.50;20.20;;;15.60;99.90;;;;;;5118504;28;20176;-45
2021/09/27 00:25:11;;;;;;;22.70;20.27;;;15.70;99.90;;;;;;5118904;28;20560;-45
2021/09/27 00:27:37;;;;;;;20.40;18.30;;;15.60;99.90;;;;;;5119518;28;20406;-45
2021/09/27 00:30:04;;;;;;;19.40;17.50;;;15.60;99.90;;;;;;5101317;28;20434;-45
2021/09/27 00:32:30;;;;;;;21.60;18.43;;;15.60;99.90;;;;;;5118594;28;20759;-45
2021/09/27 00:34:57;;;;;;;20.63;18.55;;;15.60;99.90;;;;;;5100791;28;20489;-45
2021/09/27 00:37:24;;;;;;;21.67;19.43;;;15.60;99.90;;;;;;5118646;28;20510;-44
2021/09/27 00:39:49;;;;;;;20.20;18.30;;;15.50;99.90;;;;;;5118963;28;20508;-45
2021/09/27 00:42:15;;;;;;;21.17;18.97;;;15.50;99.90;;;;;;5118125;28;20176;-45
2021/09/27 00:44:41;;;;;;;18.97;17.17;;;15.50;99.90;;;;;;5100591;28;20193;-45
2021/09/27 00:47:07;;;;;;;19.40;17.40;;;15.50;99.90;;;;;;5119157;28;20192;-45
2021/09/27 00:49:32;;;;;;;20.00;17.90;;;15.50;99.90;;;;;;5118500;28;20191;-45
2021/09/27 00:51:58;;;;;;;19.37;17.50;;;15.40;99.90;;;;;;5118339;28;20185;-45
2021/09/27 00:54:27;;;;;;;17.33;15.67;;;15.40;99.90;;;;;;5100339;28;20219;-45
2021/09/27 00:56:58;;;;;;;17.83;16.03;;;15.40;99.90;;;;;;5100826;28;20592;-45
2021/09/27 00:59:25;;;;;;;19.43;17.20;;;15.40;99.90;;;;;;5083589;28;20434;-45
2021/09/27 01:01:51;;;;;;;19.53;17.53;;;15.30;99.90;;;;;;5118919;28;20422;-45
2021/09/27 01:04:18;;;;;;;18.07;16.33;;;15.30;99.90;;;;;;5117517;28;20469;-45
2021/09/27 01:07:02;;;;;;;18.90;17.07;;;15.30;99.90;;;;;;5116744;28;20787;-45
2021/09/27 01:09:46;;;;;;;20.20;18.13;;;15.30;99.90;;;;;;5117229;28;20477;-45
2021/09/27 01:12:40;;;;;;;18.57;16.70;;;15.30;99.90;;;;;;5117101;28;20760;-44
2021/09/27 01:15:14;;;;;;;17.63;15.93;;;15.30;99.90;;;;;;5109967;28;20466;-45
2021/09/27 01:17:49;;;;;;;17.63;15.93;;;15.30;99.90;;;;;;5117908;28;20439;-45
2021/09/27 01:20:50;;;;;;;20.33;18.33;;;15.30;99.90;;;;;;5118665;28;20440;-45
2021/09/27 01:23:37;;;;;;;19.37;17.50;;;15.30;99.90;;;;;;5062631;28;20429;-45
2021/09/27 01:26:45;;;;;;;18.87;17.03;;;15.30;99.90;;;;;;5117909;28;20410;-45
2021/09/27 01:29:38;;;;;;;18.37;16.60;;;15.30;99.90;;;;;;5118532;28;20692;-45
2021/09/27 01:32:25;;;;;;;18.83;16.80;;;15.30;99.90;;;;;;5118119;28;20534;-45
2021/09/27 01:35:32;;;;;;;19.10;17.30;;;15.40;99.90;;;;;;5099933;28;20894;-45
2021/09/27 01:38:01;;;;;;;19.30;17.40;;;15.40;99.90;;;;;;5066368;28;20434;-45
2021/09/27 01:41:05;;;;;;;18.40;16.50;;;15.30;99.90;;;;;;5118281;28;20421;-45
2021/09/27 01:44:07;;;;;;;17.50;15.80;;;15.30;99.90;;;;;;5100097;28;20696;-45
2021/09/27 01:46:45;;;;;;;17.30;15.70;;;15.40;99.90;;;;;;5117189;28;20436;-45
2021/09/27 01:49:24;;;;;;;19.33;17.33;;;15.40;99.90;;;;;;5100144;28;20470;-45
2021/09/27 01:52:05;;;;;;;17.17;15.57;;;15.30;99.90;;;;;;5118024;28;20742;-45
2021/09/27 01:54:45;;;;;;;17.37;15.57;;;15.30;99.90;;;;;;5104205;28;20469;-45
2021/09/27 01:57:13;;;;;;;17.90;16.00;;;15.30;99.90;;;;;;5103825;28;20418;-45
2021/09/27 01:59:52;;;;;;;18.70;16.80;;;15.30;99.90;;;;;;5122299;28;20474;-45
2021/09/27 02:02:24;;;;;;;17.13;15.43;;;15.30;99.90;;;;;;5104359;28;20429;-45
2021/09/27 02:04:59;;;;;;;16.73;15.00;;;15.20;99.90;;;;;;5122306;28;20418;-45
2021/09/27 02:07:28;;;;;;;17.27;15.63;;;15.20;99.90;;;;;;5121867;28;20477;-45
2021/09/27 02:10:30;;;;;;;17.20;15.50;;;15.20;99.90;;;;;;5104286;28;20703;-45
2021/09/27 02:13:25;;;;;;;19.43;17.50;;;15.10;99.90;;;;;;5051540;28;20859;-45
2021/09/27 02:16:11;;;;;;;17.90;16.10;;;15.10;99.90;;;;;;5121949;28;20912;-45
2021/09/27 02:19:05;;;;;;;17.47;15.77;;;15.10;99.90;;;;;;5121119;28;20434;-45
2021/09/27 02:21:37;;;;;;;19.27;17.03;;;15.10;99.90;;;;;;5103949;28;20421;-45
2021/09/27 02:24:29;;;;;;;15.67;14.07;;;15.10;99.90;;;;;;5103551;28;20457;-45
2021/09/27 02:26:55;;;;;;;17.50;15.70;;;15.10;99.90;;;;;;5058904;28;20436;-44
2021/09/27 02:29:21;;;;;;;17.03;15.30;;;15.10;99.90;;;;;;5121762;28;20457;-45
2021/09/27 02:32:05;;;;;;;16.30;14.70;;;15.10;99.90;;;;;;5121511;28;20249;-45
2021/09/27 02:34:36;;;;;;;16.73;15.13;;;15.10;99.90;;;;;;5086216;28;20501;-45
2021/09/27 02:37:28;;;;;;;16.80;15.20;;;15.10;99.90;;;;;;5103400;28;20421;-45
2021/09/27 02:39:59;;;;;;;15.63;14.13;;;15.10;99.90;;;;;;5121079;28;20413;-45
2021/09/27 02:42:47;;;;;;;17.60;15.73;;;15.10;99.90;;;;;;5121406;28;20418;-45
2021/09/27 02:45:13;;;;;;;17.53;15.80;;;15.10;99.90;;;;;;5121166;28;20895;-45
2021/09/27 02:47:50;;;;;;;17.37;15.73;;;15.10;99.90;;;;;;5121119;28;20431;-45
2021/09/27 02:50:21;;;;;;;16.33;14.63;;;15.10;99.90;;;;;;5103194;28;20520;-45
2021/09/27 02:52:47;;;;;;;18.03;16.23;;;15.10;99.90;;;;;;5121354;28;20422;-45
2021/09/27 02:55:18;;;;;;;16.63;15.00;;;15.10;99.90;;;;;;5121029;28;20513;-45
2021/09/27 02:57:57;;;;;;;18.73;16.93;;;15.10;99.90;;;;;;5103408;28;20168;-45
2021/09/27 03:00:46;;;;;;;18.33;16.50;;;15.10;99.90;;;;;;5103288;28;20445;-45
2021/09/27 03:03:33;;;;;;;16.83;15.23;;;15.20;99.90;;;;;;5121119;28;20425;-45
2021/09/27 03:06:12;;;;;;;18.40;16.60;;;15.20;99.90;;;;;;5120681;28;20517;-45
2021/09/27 03:08:53;;;;;;;16.70;15.10;;;15.20;99.90;;;;;;5103028;28;20417;-45
2021/09/27 03:11:25;;;;;;;18.30;16.43;;;15.20;99.90;;;;;;5120627;28;20417;-45
2021/09/27 03:14:05;;;;;;;16.77;14.90;;;15.30;99.90;;;;;;5120900;28;20570;-45
2021/09/27 03:16:37;;;;;;;17.73;16.03;;;15.30;99.90;;;;;;5102781;28;20428;-45
2021/09/27 03:19:21;;;;;;;18.60;16.60;;;15.30;99.90;;;;;;5120887;28;20428;-45
2021/09/27 03:22:13;;;;;;;16.87;15.30;;;15.30;99.90;;;;;;5120818;28;20769;-45
2021/09/27 03:25:03;;;;;;;15.63;14.13;;;15.40;99.90;;;;;;5120760;28;20414;-45
2021/09/27 03:27:49;;;;;;;16.83;15.07;;;15.40;99.90;;;;;;5069081;28;20433;-45
2021/09/27 03:30:33;;;;;;;17.17;15.40;;;15.40;99.90;;;;;;5102682;28;20509;-45
2021/09/27 03:33:19;;;;;;;16.53;14.83;;;15.40;99.90;;;;;;5120373;28;20470;-45
2021/09/27 03:36:10;;;;;;;17.63;15.70;;;15.40;99.90;;;;;;5101743;28;20466;-45
2021/09/27 03:39:09;;;;;;;17.03;15.43;;;15.40;99.90;;;;;;5119869;28;20417;-45
2021/09/27 03:41:45;;;;;;;17.97;16.20;;;15.40;99.90;;;;;;5101121;28;20421;-45
2021/09/27 03:44:29;;;;;;;17.97;16.17;;;15.40;99.90;;;;;;5101869;28;20501;-45
2021/09/27 03:47:19;;;;;;;17.40;15.80;;;15.40;99.90;;;;;;5119578;28;20511;-45
2021/09/27 03:49:57;;;;;;;17.10;15.40;;;15.40;99.90;;;;;;5119762;28;20401;-45
2021/09/27 03:52:36;;;;;;;16.67;15.07;;;15.40;99.90;;;;;;5120003;28;20423;-42
2021/09/27 03:55:08;;;;;;;16.23;14.63;;;15.40;99.90;;;;;;5120111;28;20457;-45
2021/09/27 03:57:57;;;;;;;17.33;15.57;;;15.40;99.90;;;;;;5101744;28;20429;-43
2021/09/27 04:00:31;;;;;;;16.97;15.23;;;15.40;99.90;;;;;;5101928;28;20406;-45
2021/09/27 04:03:07;;;;;;;17.03;15.27;;;15.40;99.90;;;;;;5084836;28;20561;-46
2021/09/27 04:06:06;;;;;;;16.77;15.00;;;15.40;99.90;;;;;;5101894;28;20458;-46
2021/09/27 04:09:01;;;;;;;16.60;15.00;;;15.30;99.90;;;;;;5119335;28;20820;-46
2021/09/27 04:11:29;;;;;;;16.03;14.43;;;15.30;99.90;;;;;;5113324;28;20423;-46
2021/09/27 04:14:20;;;;;;;18.17;16.30;;;15.30;99.90;;;;;;5118057;28;20511;-46
2021/09/27 04:17:03;;;;;;;18.10;16.20;;;15.20;99.90;;;;;;5117464;28;20892;-46
2021/09/27 04:19:42;;;;;;;16.50;14.80;;;15.10;99.90;;;;;;5117669;28;20413;-46
2021/09/27 04:22:24;;;;;;;16.73;15.13;;;15.10;99.90;;;;;;5117853;28;20425;-46
2021/09/27 04:25:28;;;;;;;17.10;15.13;;;15.10;99.90;;;;;;5100245;28;20417;-46
2021/09/27 04:28:17;;;;;;;24.10;17.20;;;15.00;99.90;;;;;;5118696;28;20420;-46
2021/09/27 04:31:05;;;;;;;16.57;14.93;;;15.00;99.90;;;;;;5099108;28;20551;-45
2021/09/27 04:33:59;;;;;;;16.60;15.10;;;14.90;99.90;;;;;;5117095;28;20425;-45
2021/09/27 04:36:36;;;;;;;17.27;15.53;;;14.80;99.90;;;;;;5099255;28;20863;-45
2021/09/27 04:39:18;;;;;;;16.60;14.90;;;14.80;99.90;;;;;;5099272;28;20422;-46
2021/09/27 04:41:55;;;;;;;16.10;14.60;;;14.80;99.90;;;;;;5098694;28;20425;-46
2021/09/27 04:44:42;;;;;;;16.10;14.27;;;14.70;99.90;;;;;;5117120;28;20420;-45
2021/09/27 04:47:27;;;;;;;17.03;15.33;;;14.70;99.90;;;;;;5118710;28;20409;-46
2021/09/27 04:50:08;;;;;;;16.07;14.57;;;14.60;99.90;;;;;;5117795;28;20409;-46
2021/09/27 04:53:11;;;;;;;17.93;16.07;;;14.50;99.90;;;;;;5116782;28;20494;-45
2021/09/27 04:56:11;;;;;;;16.63;15.00;;;14.50;99.90;;;;;;5096490;28;20461;-45
2021/09/27 04:59:09;;;;;;;16.60;14.93;;;14.40;99.90;;;;;;5094871;28;20414;-47
2021/09/27 05:02:07;;;;;;;16.70;14.93;;;14.40;99.90;;;;;;5112922;28;20418;-47
2021/09/27 05:05:18;;;;;;;18.03;16.23;;;14.30;99.90;;;;;;5093745;28;20423;-46
2021/09/27 05:08:12;;;;;;;16.27;14.57;;;14.30;99.90;;;;;;5009307;28;20468;-46
2021/09/27 05:10:55;;;;;;;17.10;15.17;;;14.20;99.90;;;;;;5111059;28;20709;-47
2021/09/27 05:13:47;;;;;;;16.80;15.10;;;14.20;99.90;;;;;;5110112;28;20585;-46
2021/09/27 05:16:48;;;;;;;16.83;15.03;;;14.10;99.90;;;;;;5094714;28;20635;-47
2021/09/27 05:19:38;;;;;;;19.67;15.77;;;14.10;99.90;;;;;;5059332;28;20854;-47
2021/09/27 05:22:06;;;;;;;17.17;15.57;;;14.10;99.90;;;;;;5112442;28;20528;-47
2021/09/27 05:24:59;;;;;;;17.67;15.80;;;14.10;99.90;;;;;;5112338;28;20774;-46
2021/09/27 05:28:03;;;;;;;17.77;15.97;;;14.10;99.90;;;;;;5111096;28;20429;-46
2021/09/27 05:30:53;;;;;;;17.83;15.93;;;14.00;99.90;;;;;;5111935;28;21036;-46
2021/09/27 05:33:41;;;;;;;15.83;14.33;;;14.00;99.90;;;;;;5110496;28;20422;-46
2021/09/27 05:36:33;;;;;;;17.70;16.00;;;14.10;99.90;;;;;;5091101;28;20459;-46
2021/09/27 05:39:25;;;;;;;16.70;15.00;;;14.10;99.90;;;;;;5109754;28;21004;-46
2021/09/27 05:42:03;;;;;;;19.10;17.30;;;14.10;99.90;;;;;;5110905;28;20408;-46
2021/09/27 05:44:44;;;;;;;17.27;15.40;;;14.10;99.90;;;;;;5096899;28;20442;-47
2021/09/27 05:47:36;;;;;;;17.33;15.53;;;14.10;99.90;;;;;;5091082;28;20409;-47
2021/09/27 05:50:12;;;;;;;17.20;15.60;;;14.10;99.90;;;;;;5073056;28;20867;-47
2021/09/27 05:53:03;;;;;;;16.37;14.77;;;14.20;99.90;;;;;;5088890;28;20418;-46
2021/09/27 05:55:44;;;;;;;17.57;15.63;;;14.20;99.90;;;;;;5069339;28;20697;-46
2021/09/27 05:58:11;;;;;;;15.93;14.40;;;14.30;99.90;;;;;;5087382;28;20410;-47
2021/09/27 06:00:49;;;;;;;17.30;15.10;;;14.40;99.90;;;;;;5087889;28;20743;-47
2021/09/27 06:03:40;;;;;;;18.17;16.40;;;14.50;99.90;;;;;;5087594;28;20419;-46
2021/09/27 06:06:12;;;;;;;15.77;14.27;;;14.70;99.90;;;;;;5088013;28;20744;-47
2021/09/27 06:08:56;;;;;;;15.10;13.63;;;14.80;99.90;;;;;;5071410;28;20582;-47
2021/09/27 06:11:50;;;;;;;14.63;13.23;;;15.00;99.90;;;;;;5090534;28;20741;-47
2021/09/27 06:14:17;;;;;;;15.27;13.67;;;15.20;99.90;;;;;;5072910;28;20466;-48
2021/09/27 06:16:59;;;;;;;15.10;13.43;;;15.40;99.90;;;;;;5085028;28;20903;-48
2021/09/27 06:19:49;;;;;;;15.17;13.67;;;15.50;99.90;;;;;;5093016;28;20559;-48
2021/09/27 06:22:23;;;;;;;16.40;14.47;;;15.70;99.90;;;;;;5110422;28;20485;-48
2021/09/27 06:25:19;;;;;;;13.80;12.50;;;15.90;99.90;;;;;;5111449;28;20775;-48
2021/09/27 06:27:48;;;;;;;14.03;12.60;;;16.10;99.90;;;;;;5110861;28;20436;-48
2021/09/27 06:30:17;;;;;;;14.53;13.13;;;16.20;99.90;;;;;;5110154;28;20740;-47
2021/09/27 06:32:55;;;;;;;14.23;12.73;;;16.40;99.90;;;;;;5090237;28;20493;-48
2021/09/27 06:35:24;;;;;;;15.00;13.70;;;16.60;99.90;;;;;;5110689;28;20475;-47
2021/09/27 06:37:51;;;;;;;14.77;13.37;;;16.70;99.90;;;;;;5112750;28;20426;-48
2021/09/27 06:40:18;;;;;;;14.60;13.30;;;16.80;99.90;;;;;;5116019;28;20436;-47
2021/09/27 06:42:43;;;;;;;15.57;14.07;;;16.90;99.90;;;;;;5118799;28;20460;-47
2021/09/27 06:45:10;;;;;;;14.73;13.13;;;17.00;99.90;;;;;;5118738;28;20593;-47
2021/09/27 06:47:36;;;;;;;15.50;12.97;;;17.00;99.90;;;;;;5117896;28;20810;-47
2021/09/27 06:50:06;;;;;;;14.07;12.57;;;17.00;99.90;;;;;;5117439;28;20710;-48
2021/09/27 06:52:32;;;;;;;16.10;12.57;;;17.10;99.90;;;;;;5118275;28;20425;-48
2021/09/27 06:54:57;;;;;;;13.10;11.90;;;17.30;99.90;;;;;;5117553;28;20464;-47
2021/09/27 06:57:23;;;;;;;14.87;13.10;;;17.70;99.90;;;;;;5118061;28;20850;-47
2021/09/27 06:59:49;;;;;;;13.73;12.33;;;18.10;99.90;;;;;;5117848;28;20221;-48
2021/09/27 07:02:17;;;;;;;12.73;11.43;;;18.20;99.40;;;;;;5097277;28;20678;-47
2021/09/27 07:04:43;;;;;;;12.73;11.53;;;18.40;99.30;;;;;;5116136;28;20425;-48
2021/09/27 07:07:09;;;;;;;12.53;11.23;;;18.40;99.20;;;;;;5081082;28;20439;-47
2021/09/27 07:09:36;;;;;;;13.23;11.93;;;18.20;98.70;;;;;;5099495;28;20186;-47
2021/09/27 07:12:06;;;;;;;11.20;10.20;;;17.80;99.60;;;;;;5116350;28;20516;-47
2021/09/27 07:14:32;;;;;;;12.20;11.10;;;18.00;99.90;;;;;;5063906;28;20467;-47
2021/09/27 07:16:57;;;;;;;11.43;10.40;;;18.40;99.30;;;;;;5096717;28;20434;-48
2021/09/27 07:19:23;;;;;;;11.70;10.60;;;18.90;98.80;;;;;;5113665;28;20547;-48
2021/09/27 07:21:49;;;;;;;10.33;9.33;;;19.60;98.10;;;;;;5113822;28;20215;-46
2021/09/27 07:24:16;;;;;;;11.20;10.10;;;20.40;96.20;;;;;;5115346;28;20418;-46
2021/09/27 07:26:42;;;;;;;12.50;10.93;;;21.40;94.90;;;;;;5098031;28;20867;-46
2021/09/27 07:29:08;;;;;;;9.47;8.57;;;22.00;94.20;;;;;;5116918;28;20475;-46
2021/09/27 07:31:35;;;;;;;11.03;10.13;;;23.00;93.40;;;;;;5116623;28;21022;-46
2021/09/27 07:34:04;;;;;;;10.70;9.70;;;23.90;91.90;;;;;;5115589;28;20442;-46
2021/09/27 07:36:31;;;;;;;9.77;8.90;;;24.70;89.80;;;;;;5116143;28;20541;-46
2021/09/27 07:38:56;;;;;;;9.80;8.90;;;25.30;86.40;;;;;;5116344;28;20412;-46
2021/09/27 07:41:22;;;;;;;8.57;7.77;;;25.70;83.90;;;;;;5115563;28;20430;-46
2021/09/27 07:43:48;;;;;;;9.47;8.63;;;25.90;83.80;;;;;;5115719;28;20481;-46
2021/09/27 07:46:15;;;;;;;10.40;9.60;;;26.30;81.80;;;;;;5115508;28;20172;-46
2021/09/27 07:48:42;;;;;;;9.43;8.50;;;26.50;80.50;;;;;;5116991;28;20743;-46
2021/09/27 07:51:08;;;;;;;9.17;8.23;;;26.10;79.60;;;;;;5115587;28;20454;-47
2021/09/27 07:53:34;;;;;;;9.53;8.73;;;26.20;79.60;;;;;;5116874;28;20426;-47
2021/09/27 07:56:00;;;;;;;9.03;8.30;;;27.10;79.00;;;;;;5116101;28;20726;-47
2021/09/27 07:58:26;;;;;;;8.63;7.83;;;27.90;75.00;;;;;;5114934;28;20424;-47
2021/09/27 08:00:52;;;;;;;8.20;7.50;;;28.40;74.50;;;;;;5114503;28;20834;-47
2021/09/27 08:03:22;;;;;;;7.27;6.53;;;29.40;70.00;;;;;;5115712;28;20167;-47
2021/09/27 08:05:48;;;;;;;7.57;6.90;;;29.80;67.50;;;;;;5115058;28;20756;-47
2021/09/27 08:08:14;;;;;;;7.23;6.63;;;30.20;64.10;;;;;;5115761;28;20749;-46
2021/09/27 08:10:40;;;;;;;7.53;6.93;;;30.60;62.40;;;;;;5116026;28;20414;-46
2021/09/27 08:13:07;;;;;;;6.93;6.43;;;29.40;61.30;;;;;;5114905;28;20222;-46
2021/09/27 08:15:37;;;;;;;6.77;6.27;;;29.40;63.30;;;;;;5114433;28;20590;-46
2021/09/27 08:18:05;;;;;;;7.17;6.57;;;29.50;62.80;;;;;;5113862;28;20587;-46
2021/09/27 08:20:37;;;;;;;6.33;5.83;;;29.00;62.90;;;;;;5115599;28;20436;-46
2021/09/27 08:23:03;;;;;;;6.37;5.83;;;29.60;63.20;;;;;;5114619;28;20422;-46
2021/09/27 08:25:30;;;;;;;5.93;5.47;;;30.40;59.70;;;;;;5096359;28;20410;-46
2021/09/27 08:27:56;;;;;;;6.30;5.80;;;30.30;59.40;;;;;;5115905;28;20484;-47
2021/09/27 08:31:03;;;;;;;7.27;6.67;;;30.50;58.80;;;;;;5115727;28;20424;-46
2021/09/27 08:33:34;;;;;;;6.20;5.70;;;30.70;58.00;;;;;;5095491;28;20794;-46
2021/09/27 08:36:03;;;;;;;6.40;5.80;;;31.20;57.00;;;;;;5094693;28;20563;-46
2021/09/27 08:38:36;;;;;;;6.20;5.80;;;31.40;56.60;;;;;;5078563;28;20426;-46
2021/09/27 08:41:05;;;;;;;6.27;5.77;;;31.10;55.70;;;;;;5096214;28;20410;-46
2021/09/27 08:43:47;;;;;;;6.00;5.50;;;31.00;56.60;;;;;;5094339;28;20398;-46
2021/09/27 08:46:25;;;;;;;6.53;6.03;;;30.90;55.90;;;;;;5096299;28;20849;-46
2021/09/27 08:48:54;;;;;;;5.95;5.47;;;30.30;56.70;;;;;;5097017;28;20664;-46
2021/09/27 08:51:19;;;;;;;6.17;5.67;;;31.00;56.10;;;;;;5095818;28;20177;-46
2021/09/27 08:53:48;;;;;;;5.70;4.97;;;31.50;54.70;;;;;;5095486;28;20587;-46
2021/09/27 08:56:30;;;;;;;5.70;5.20;;;30.20;56.00;;;;;;5077257;28;20199;-46
2021/09/27 08:59:34;;;;;;;6.10;5.60;;;31.70;55.50;;;;;;5097311;28;20679;-46
2021/09/27 09:02:00;;;;;;;6.53;5.93;;;31.20;54.60;;;;;;5091063;28;20835;-46
2021/09/27 09:04:47;;;;;;;5.87;5.47;;;31.80;53.90;;;;;;5096305;28;20414;-45
2021/09/27 09:07:16;;;;;;;5.33;4.93;;;31.60;54.30;;;;;;5096086;28;20180;-46
2021/09/27 09:09:54;;;;;;;5.53;5.13;;;30.90;53.00;;;;;;5095704;28;20395;-46
2021/09/27 09:12:38;;;;;;;5.33;4.93;;;31.50;53.80;;;;;;5059810;28;20422;-45
2021/09/27 09:15:14;;;;;;;5.50;5.00;;;31.80;52.80;;;;;;5078451;28;20917;-46
2021/09/27 09:18:10;;;;;;;5.10;4.70;;;31.90;52.30;;;;;;5096300;28;20437;-46
2021/09/27 09:20:58;;;;;;;4.20;3.90;;;31.60;52.20;;;;;;5097377;28;20483;-46
2021/09/27 09:23:26;;;;;;;5.33;4.83;;;32.10;52.30;;;;;;5095739;28;20433;-47
2021/09/27 09:25:52;;;;;;;5.83;5.33;;;30.90;52.50;;;;;;5095483;28;20509;-46
2021/09/27 09:28:18;;;;;;;6.33;5.47;;;30.60;53.10;;;;;;5093954;28;20457;-46
2021/09/27 09:31:05;;;;;;;5.40;4.90;;;29.70;53.60;;;;;;5094181;28;20766;-46
2021/09/27 09:33:50;;;;;;;5.43;4.93;;;30.00;54.10;;;;;;5059472;28;20445;-46
2021/09/27 09:36:25;;;;;;;5.43;4.93;;;29.70;53.30;;;;;;5095105;28;20518;-46
2021/09/27 09:39:13;;;;;;;4.80;4.40;;;30.00;54.00;;;;;;5076884;28;20406;-46
2021/09/27 09:41:59;;;;;;;4.53;4.13;;;30.30;53.80;;;;;;5093101;28;20812;-46
2021/09/27 09:44:38;;;;;;;5.40;4.90;;;31.00;53.50;;;;;;5075962;28;20426;-46
2021/09/27 09:47:08;;;;;;;4.83;4.43;;;31.30;52.60;;;;;;5094229;28;20504;-46
2021/09/27 09:49:58;;;;;;;5.30;4.80;;;31.50;51.90;;;;;;5094315;28;20430;-46
2021/09/27 09:52:31;;;;;;;6.03;4.57;;;31.60;51.00;;;;;;5088591;28;20488;-46
2021/09/27 09:54:58;;;;;;;5.70;5.20;;;31.00;52.50;;;;;;5095987;28;20451;-46
2021/09/27 09:57:37;;;;;;;4.53;4.13;;;30.50;52.20;;;;;;5095643;28;20537;-47
2021/09/27 10:00:17;;;;;;;4.20;3.90;;;31.00;52.10;;;;;;5078297;28;20808;-47
2021/09/27 10:02:45;;;;;;;4.70;4.40;;;31.70;51.30;;;;;;5095245;28;20412;-47
2021/09/27 10:05:25;;;;;;;4.90;4.50;;;32.70;49.70;;;;;;5060840;28;20418;-47
2021/09/27 10:07:58;;;;;;;4.97;4.67;;;33.30;48.30;;;;;;5075527;28;20744;-46
2021/09/27 10:10:37;;;;;;;4.23;3.93;;;33.70;47.80;;;;;;5074456;28;20388;-47
2021/09/27 10:13:05;;;;;;;5.27;4.77;;;35.00;47.30;;;;;;5092235;28;20818;-47
2021/09/27 10:15:34;;;;;;;4.23;3.93;;;36.40;45.70;;;;;;5077277;28;20453;-47
2021/09/27 10:18:31;;;;;;;4.33;3.93;;;35.90;43.90;;;;;;5095858;28;20556;-46
2021/09/27 10:21:23;;;;;;;4.33;4.03;;;35.20;43.90;;;;;;5072059;28;20404;-47
2021/09/27 10:24:00;;;;;;;4.60;3.53;;;34.50;43.70;;;;;;5095023;28;20485;-47
2021/09/27 10:26:35;;;;;;;4.50;4.20;;;34.70;44.40;;;;;;5062358;28;20455;-47
2021/09/27 10:29:09;;;;;;;4.27;3.93;;;36.20;43.30;;;;;;5098069;28;20427;-47
2021/09/27 10:31:38;;;;;;;5.20;4.70;;;35.60;43.70;;;;;;5103425;28;20465;-47
2021/09/27 10:34:15;;;;;;;4.20;3.90;;;35.60;43.40;;;;;;5116666;28;20420;-47
2021/09/27 10:36:48;;;;;;;4.77;4.37;;;37.00;42.10;;;;;;5100529;28;20396;-46
2021/09/27 10:39:16;;;;;;;4.22;3.92;;;37.20;40.60;;;;;;5100135;28;20559;-46
2021/09/27 10:41:45;;;;;;;3.88;3.58;;;36.70;39.90;;;;;;5099542;28;20179;-46
2021/09/27 10:44:16;;;;;;;8.90;4.50;;;35.70;41.00;;;;;;5117724;28;20770;-47
2021/09/27 10:46:46;;;;;;;6.00;4.23;;;34.90;41.50;;;;;;5116361;28;20429;-47
2021/09/27 10:49:17;;;;;;;3.90;3.17;;;34.60;42.30;;;;;;5098177;28;20436;-48
2021/09/27 10:51:46;;;;;;;3.87;3.57;;;34.80;42.20;;;;;;5098065;28;20499;-48
2021/09/27 10:54:33;;;;;;;4.30;3.83;;;35.00;41.90;;;;;;5098158;28;20428;-41
2021/09/27 10:57:00;;;;;;;4.33;3.93;;;34.70;41.80;;;;;;5117795;28;20433;-39
2021/09/27 10:59:48;;;;;;;3.63;3.33;;;34.10;42.00;;;;;;5118115;28;20423;-43
2021/09/27 11:02:28;;;;;;;3.23;3.03;;;31.70;43.30;;;;;;5117066;28;20214;-41
2021/09/27 11:05:08;;;;;;;3.65;3.35;;;31.30;45.20;;;;;;5117561;28;20387;-39
2021/09/27 11:07:50;;;;;;;3.47;3.17;;;31.30;45.70;;;;;;5109338;28;20466;-40
2021/09/27 11:10:42;;;;;;;4.30;3.90;;;30.80;45.70;;;;;;5103065;28;20426;-40
2021/09/27 11:13:11;;;;;;;3.73;3.43;;;29.90;46.20;;;;;;5097304;28;20831;-42
2021/09/27 11:15:41;;;;;;;3.73;3.43;;;28.80;47.70;;;;;;5080096;28;20796;-39
2021/09/27 11:18:28;;;;;;;4.70;4.30;;;29.10;48.70;;;;;;5079739;28;20784;-40
2021/09/27 11:21:19;;;;;;;3.80;3.30;;;28.50;47.80;;;;;;5097691;28;20413;-42
2021/09/27 11:23:50;;;;;;;4.40;3.57;;;27.60;49.10;;;;;;5096368;28;20406;-40
2021/09/27 11:26:18;;;;;;;5.03;3.80;;;27.60;49.40;;;;;;5096680;28;20447;-40
2021/09/27 11:28:50;;;;;;;4.30;4.00;;;27.20;49.60;;;;;;5098076;28;20406;-40
2021/09/27 11:31:22;;;;;;;4.00;3.53;;;27.00;50.70;;;;;;5078519;28;21223;-42
2021/09/27 11:33:56;;;;;;;3.83;3.53;;;26.80;50.50;;;;;;5096866;28;20511;-41
2021/09/27 11:36:21;;;;;;;3.90;3.50;;;26.30;51.20;;;;;;5096458;28;20421;-39
2021/09/27 11:39:10;;;;;;;4.30;3.97;;;25.80;52.30;;;;;;5097042;28;20405;-40
2021/09/27 11:41:41;;;;;;;3.90;3.60;;;25.10;53.10;;;;;;5050234;28;20556;-41
2021/09/27 11:44:22;;;;;;;4.10;2.97;;;25.80;53.50;;;;;;5079799;28;20411;-40
2021/09/27 11:47:02;;;;;;;3.47;3.17;;;25.90;53.20;;;;;;5096890;28;20422;-40
2021/09/27 11:49:52;;;;;;;3.10;2.90;;;26.50;52.50;;;;;;5097645;28;20403;-41
2021/09/27 11:52:25;;;;;;;5.10;3.40;;;27.00;51.70;;;;;;5099132;28;20507;-41
2021/09/27 11:55:00;;;;;;;5.77;3.90;;;27.20;51.40;;;;;;5098074;28;20476;-41
2021/09/27 11:57:46;;;;;;;3.67;3.37;;;27.00;52.10;;;;;;5096783;28;20456;-40
2021/09/27 12:00:21;;;;;;;3.97;3.67;;;26.40;52.50;;;;;;5096936;28;20493;-42
2021/09/27 12:02:57;;;;;;;4.50;4.10;;;26.20;53.40;;;;;;5079723;28;20420;-43
2021/09/27 12:05:31;;;;;;;6.30;3.80;;;25.90;54.10;;;;;;5079158;28;20656;-40
2021/09/27 12:08:05;;;;;;;4.63;3.57;;;25.90;53.60;;;;;;5079997;28;20544;-41
2021/09/27 12:10:33;;;;;;;3.80;3.27;;;25.60;54.20;;;;;;5079374;28;20442;-43
2021/09/27 12:13:20;;;;;;;4.27;3.87;;;25.50;54.70;;;;;;5086328;28;20860;-40
2021/09/27 12:15:52;;;;;;;2.90;2.70;;;25.30;55.00;;;;;;5116791;28;20735;-38
2021/09/27 12:18:40;;;;;;;3.90;3.20;;;24.60;55.60;;;;;;5098311;28;20508;-39
2021/09/27 12:21:17;;;;;;;3.27;2.97;;;25.00;55.40;;;;;;5117014;28;20443;-40
2021/09/27 12:24:21;;;;;;;4.57;3.53;;;24.90;55.40;;;;;;5116761;28;20425;-43
2021/09/27 12:27:12;;;;;;;3.50;3.20;;;25.40;55.80;;;;;;5115846;28;20509;-42
2021/09/27 12:30:09;;;;;;;3.27;3.00;;;26.00;54.60;;;;;;5116656;28;20439;-39
2021/09/27 12:32:37;;;;;;;3.80;3.50;;;26.10;54.40;;;;;;5096327;28;20756;-40
2021/09/27 12:35:10;;;;;;;3.60;3.23;;;25.70;54.50;;;;;;5092275;28;20904;-40
2021/09/27 12:37:41;;;;;;;3.93;3.53;;;25.30;55.40;;;;;;5094010;28;20489;-41
2021/09/27 12:40:16;;;;;;;4.93;3.63;;;24.70;56.50;;;;;;5095565;28;20412;-40
2021/09/27 12:42:49;;;;;;;3.40;3.10;;;24.30;57.20;;;;;;5082963;28;20861;-39
2021/09/27 12:45:25;;;;;;;4.00;3.70;;;24.00;57.40;;;;;;5116885;28;20448;-42
2021/09/27 12:47:55;;;;;;;3.63;3.20;;;23.70;58.50;;;;;;5097963;28;20469;-43
2021/09/27 12:50:25;;;;;;;3.70;3.30;;;23.50;58.90;;;;;;5081642;28;20502;-40
2021/09/27 12:53:03;;;;;;;5.43;3.50;;;23.50;58.80;;;;;;5081566;28;20472;-40
2021/09/27 12:55:49;;;;;;;4.17;3.60;;;23.20;59.40;;;;;;5098706;28;20464;-39
2021/09/27 12:58:26;;;;;;;3.03;2.73;;;23.50;59.30;;;;;;5098726;28;20708;-38
2021/09/27 13:00:53;;;;;;;3.30;3.00;;;23.40;58.50;;;;;;5117041;28;20820;-41
2021/09/27 13:03:24;;;;;;;2.90;2.57;;;23.50;59.00;;;;;;5099261;28;20422;-40
2021/09/27 13:05:58;;;;;;;2.53;2.23;;;23.70;58.20;;;;;;5116266;28;20727;-41
2021/09/27 13:08:39;;;;;;;3.50;2.90;;;23.70;57.90;;;;;;5117670;28;20763;-41
2021/09/27 13:11:06;;;;;;;2.40;2.20;;;23.70;58.30;;;;;;5116350;28;20435;-41
2021/09/27 13:13:34;;;;;;;3.00;2.60;;;23.80;57.50;;;;;;5114670;28;20437;-40
2021/09/27 13:16:16;;;;;;;2.67;2.47;;;23.70;57.80;;;;;;5116460;28;20462;-39
2021/09/27 13:18:45;;;;;;;2.40;2.20;;;23.50;58.00;;;;;;5098940;28;20478;-40
2021/09/27 13:21:40;;;;;;;3.13;2.83;;;23.50;58.60;;;;;;5115908;28;20430;-42
2021/09/27 13:24:10;;;;;;;4.50;2.93;;;23.40;58.10;;;;;;5115839;28;20402;-40
2021/09/27 13:26:43;;;;;;;5.03;2.87;;;23.20;58.30;;;;;;5114378;28;20414;-42